createdAt,value
2018-12-02T00:00:56.026Z,9.30
2018-12-02T00:03:31.163Z,9.30
2018-12-02T00:06:03.458Z,9.30
2018-12-02T00:08:35.894Z,9.30
2018-12-02T00:11:07.646Z,9.30
2018-12-02T00:13:39.084Z,9.40
2018-12-02T00:16:10.343Z,9.40
2018-12-02T00:18:41.755Z,9.40
2018-12-02T00:21:13.244Z,9.50
2018-12-02T00:23:45.994Z,9.40
2018-12-02T00:26:17.542Z,9.40
2018-12-02T00:28:51.559Z,9.50
2018-12-02T00:31:23.365Z,9.50
2018-12-02T00:33:55.448Z,9.50
2018-12-02T00:36:28.949Z,9.60
2018-12-02T00:39:00.300Z,9.60
2018-12-02T00:41:31.522Z,9.60
2018-12-02T00:44:02.967Z,9.60
2018-12-02T00:46:34.159Z,9.60
2018-12-02T00:49:05.404Z,9.60
2018-12-02T00:51:36.761Z,9.70
2018-12-02T00:54:08.616Z,9.70
2018-12-02T00:56:39.797Z,9.70
2018-12-02T00:59:13.477Z,9.70
2018-12-02T01:01:44.867Z,9.70
2018-12-02T01:04:16.928Z,9.70
2018-12-02T01:06:53.406Z,9.70
2018-12-02T01:09:20.685Z,9.70
2018-12-02T01:11:51.930Z,9.70
2018-12-02T01:14:23.939Z,9.70
2018-12-02T01:16:55.338Z,9.70
2018-12-02T01:19:26.649Z,9.70
2018-12-02T01:21:58.211Z,9.70
2018-12-02T01:24:29.597Z,9.70
2018-12-02T01:27:03.830Z,9.70
2018-12-02T01:29:35.866Z,9.70
2018-12-02T01:32:06.970Z,9.70
2018-12-02T01:34:38.355Z,9.70
2018-12-02T01:37:10.281Z,9.70
2018-12-02T01:39:41.791Z,9.70
2018-12-02T01:42:13.098Z,9.70
2018-12-02T01:44:45.164Z,9.70
2018-12-02T01:47:16.606Z,9.60
2018-12-02T01:49:47.855Z,9.60
2018-12-02T01:52:19.180Z,9.60
2018-12-02T01:54:50.487Z,9.70
2018-12-02T01:57:21.616Z,9.70
2018-12-02T01:59:55.604Z,9.70
2018-12-02T02:02:27.691Z,9.70
2018-12-02T02:04:59.085Z,9.70
2018-12-02T02:07:30.327Z,9.70
2018-12-02T02:10:01.559Z,9.70
2018-12-02T02:12:34.369Z,9.70
2018-12-02T02:15:09.301Z,9.70
2018-12-02T02:17:41.385Z,9.70
2018-12-02T02:20:13.897Z,9.70
2018-12-02T02:22:47.201Z,9.80
2018-12-02T02:25:19.586Z,9.70
2018-12-02T02:27:59.412Z,9.70
2018-12-02T02:30:33.817Z,9.70
2018-12-02T02:33:08.471Z,9.70
2018-12-02T02:35:44.453Z,9.70
2018-12-02T02:38:14.228Z,9.70
2018-12-02T02:40:45.477Z,9.70
2018-12-02T02:43:16.857Z,9.80
2018-12-02T02:45:50.880Z,9.70
2018-12-02T02:48:22.082Z,9.70
2018-12-02T02:50:53.281Z,9.80
2018-12-02T02:53:27.559Z,9.80
2018-12-02T02:55:58.731Z,9.80
2018-12-02T02:58:29.953Z,9.90
2018-12-02T03:01:01.303Z,9.90
2018-12-02T03:03:32.467Z,9.90
2018-12-02T03:06:04.614Z,9.80
2018-12-02T03:08:37.719Z,9.80
2018-12-02T03:11:08.903Z,9.80
2018-12-02T03:13:41.169Z,9.70
2018-12-02T03:16:12.569Z,9.70
2018-12-02T03:18:43.931Z,9.60
2018-12-02T03:21:17.518Z,9.60
2018-12-02T03:23:48.669Z,9.50
2018-12-02T03:26:20.061Z,9.50
2018-12-02T03:28:52.309Z,9.40
2018-12-02T03:31:25.186Z,9.40
2018-12-02T03:33:57.251Z,9.30
2018-12-02T03:36:28.560Z,9.30
2018-12-02T03:38:59.847Z,9.30
2018-12-02T03:41:32.178Z,9.20
2018-12-02T03:44:03.516Z,9.20
2018-12-02T03:46:34.787Z,9.10
2018-12-02T03:49:08.886Z,9.10
2018-12-02T03:51:40.322Z,9.10
2018-12-02T03:54:11.474Z,9.00
2018-12-02T03:56:47.907Z,9.00
2018-12-02T03:59:19.995Z,9.00
2018-12-02T04:01:51.551Z,9.00
2018-12-02T04:04:23.526Z,9.00
2018-12-02T04:06:57.332Z,9.00
2018-12-02T04:09:29.663Z,8.90
2018-12-02T04:12:01.007Z,8.90
2018-12-02T04:14:32.414Z,8.90
2018-12-02T04:17:03.671Z,8.90
2018-12-02T04:19:35.714Z,8.90
2018-12-02T04:22:08.028Z,8.90
2018-12-02T04:24:39.229Z,8.90
2018-12-02T04:27:10.463Z,8.90
2018-12-02T04:29:41.711Z,8.90
2018-12-02T04:32:13.608Z,8.90
2018-12-02T04:34:44.762Z,8.90
2018-12-02T04:37:16.171Z,8.90
2018-12-02T04:39:48.239Z,8.90
2018-12-02T04:42:19.602Z,8.90
2018-12-02T04:44:51.005Z,8.90
2018-12-02T04:47:22.384Z,8.90
2018-12-02T04:49:53.617Z,8.90
2018-12-02T04:52:24.727Z,8.90
2018-12-02T04:54:56.068Z,8.90
2018-12-02T04:57:27.558Z,8.90
2018-12-02T04:59:58.762Z,8.90
2018-12-02T05:02:32.858Z,8.90
2018-12-02T05:05:04.075Z,8.90
2018-12-02T05:07:35.611Z,8.90
2018-12-02T05:10:17.119Z,9.00
2018-12-02T05:12:48.514Z,8.90
2018-12-02T05:15:20.582Z,8.90
2018-12-02T05:17:51.765Z,8.90
2018-12-02T05:20:25.746Z,8.90
2018-12-02T05:22:57.006Z,8.90
2018-12-02T05:25:28.263Z,8.90
2018-12-02T05:27:59.488Z,9.00
2018-12-02T05:30:31.181Z,8.90
2018-12-02T05:33:02.377Z,8.90
2018-12-02T05:35:33.688Z,8.90
2018-12-02T05:38:04.975Z,9.00
2018-12-02T05:40:37.360Z,9.00
2018-12-02T05:43:08.640Z,9.00
2018-12-02T05:45:39.875Z,9.00
2018-12-02T05:48:11.111Z,9.00
2018-12-02T05:50:42.379Z,9.00
2018-12-02T05:53:13.925Z,9.00
2018-12-02T05:55:45.168Z,9.10
2018-12-02T05:58:16.389Z,9.10
2018-12-02T06:00:53.382Z,9.10
2018-12-02T06:03:27.475Z,9.10
2018-12-02T06:05:58.845Z,9.10
2018-12-02T06:08:30.089Z,9.10
2018-12-02T06:11:01.240Z,9.10
2018-12-02T06:13:34.300Z,9.10
2018-12-02T06:16:05.545Z,9.10
2018-12-02T06:18:36.846Z,9.10
2018-12-02T06:21:08.240Z,9.10
2018-12-02T06:23:39.421Z,9.10
2018-12-02T06:26:10.554Z,9.10
2018-12-02T06:28:43.930Z,9.10
2018-12-02T06:31:15.968Z,9.10
2018-12-02T06:33:47.266Z,9.20
2018-12-02T06:36:18.440Z,9.20
2018-12-02T06:38:49.797Z,9.20
2018-12-02T06:41:22.401Z,9.20
2018-12-02T06:43:54.519Z,9.20
2018-12-02T06:46:25.699Z,9.20
2018-12-02T06:48:56.904Z,9.20
2018-12-02T06:51:28.186Z,9.20
2018-12-02T06:53:59.358Z,9.20
2018-12-02T06:56:37.607Z,9.20
2018-12-02T06:59:20.609Z,9.20
2018-12-02T07:02:00.766Z,9.20
2018-12-02T07:04:38.882Z,9.20
2018-12-02T07:07:10.088Z,9.20
2018-12-02T07:09:41.271Z,9.20
2018-12-02T07:12:12.504Z,9.20
2018-12-02T07:14:43.776Z,9.20
2018-12-02T07:17:15.817Z,9.20
2018-12-02T07:19:50.195Z,9.20
2018-12-02T07:22:24.287Z,9.20
2018-12-02T07:24:59.051Z,9.20
2018-12-02T07:27:30.291Z,9.20
2018-12-02T07:30:01.593Z,9.30
2018-12-02T07:32:33.619Z,9.30
2018-12-02T07:35:24.129Z,9.30
2018-12-02T07:38:04.743Z,9.30
2018-12-02T07:40:38.621Z,9.30
2018-12-02T07:43:12.305Z,9.30
2018-12-02T07:45:43.451Z,9.30
2018-12-02T07:48:18.396Z,9.30
2018-12-02T07:50:54.679Z,9.40
2018-12-02T07:53:26.022Z,9.40
2018-12-02T07:55:57.802Z,9.40
2018-12-02T07:58:30.041Z,9.40
2018-12-02T08:01:01.402Z,9.40
2018-12-02T08:03:40.923Z,9.50
2018-12-02T08:06:13.017Z,9.50
2018-12-02T08:08:44.168Z,9.50
2018-12-02T08:11:16.292Z,9.50
2018-12-02T08:13:47.434Z,9.50
2018-12-02T08:16:18.546Z,9.50
2018-12-02T08:18:50.085Z,9.50
2018-12-02T08:21:22.288Z,9.50
2018-12-02T08:23:58.728Z,9.50
2018-12-02T08:26:29.953Z,9.50
2018-12-02T08:29:09.987Z,9.50
2018-12-02T08:31:41.229Z,9.60
2018-12-02T08:34:12.679Z,9.60
2018-12-02T08:36:46.203Z,9.60
2018-12-02T08:39:17.501Z,9.60
2018-12-02T08:41:48.748Z,9.60
2018-12-02T08:44:20.000Z,9.60
2018-12-02T08:46:51.386Z,9.60
2018-12-02T08:49:22.665Z,9.60
2018-12-02T08:51:53.819Z,9.70
2018-12-02T08:54:25.003Z,9.70
2018-12-02T08:56:56.118Z,9.80
2018-12-02T08:59:27.447Z,9.80
2018-12-02T09:01:58.636Z,9.90
2018-12-02T09:04:29.827Z,9.90
2018-12-02T09:07:01.014Z,9.90
2018-12-02T09:09:33.144Z,10.00
2018-12-02T09:12:04.325Z,10.10
2018-12-02T09:14:40.955Z,10.10
2018-12-02T09:17:12.253Z,10.10
2018-12-02T09:19:43.634Z,10.20
2018-12-02T09:22:14.846Z,10.30
2018-12-02T09:24:46.154Z,10.30
2018-12-02T09:27:17.576Z,10.40
2018-12-02T09:29:48.731Z,10.40
2018-12-02T09:32:20.005Z,10.40
2018-12-02T09:34:51.225Z,10.50
2018-12-02T09:37:22.686Z,10.50
2018-12-02T09:39:54.874Z,10.50
2018-12-02T09:42:26.155Z,10.60
2018-12-02T09:45:01.673Z,10.60
2018-12-02T09:47:33.925Z,10.60
2018-12-02T09:50:09.957Z,10.70
2018-12-02T09:52:41.519Z,10.70
2018-12-02T09:55:31.349Z,10.70
2018-12-02T09:58:05.783Z,10.70
2018-12-02T10:00:37.129Z,10.70
2018-12-02T10:03:08.509Z,10.70
2018-12-02T10:05:39.888Z,10.70
2018-12-02T10:08:11.203Z,10.80
2018-12-02T10:10:42.447Z,10.80
2018-12-02T10:13:15.556Z,10.80
2018-12-02T10:15:46.961Z,10.80
2018-12-02T10:18:18.147Z,10.80
2018-12-02T10:20:49.537Z,10.80
2018-12-02T10:23:20.666Z,10.80
2018-12-02T10:25:52.718Z,10.90
2018-12-02T10:28:23.989Z,10.90
2018-12-02T10:30:55.110Z,10.90
2018-12-02T10:33:26.287Z,10.90
2018-12-02T10:35:57.565Z,10.90
2018-12-02T10:38:28.706Z,10.90
2018-12-02T10:40:59.985Z,10.90
2018-12-02T10:43:35.348Z,10.90
2018-12-02T10:46:08.850Z,11.00
2018-12-02T10:48:45.378Z,11.00
2018-12-02T10:51:16.608Z,11.00
2018-12-02T10:53:48.658Z,11.00
2018-12-02T10:56:20.021Z,11.10
2018-12-02T10:58:52.233Z,11.10
2018-12-02T11:01:38.866Z,11.10
2018-12-02T11:04:10.307Z,11.10
2018-12-02T11:06:41.723Z,11.20
2018-12-02T11:09:14.743Z,11.20
2018-12-02T11:11:45.958Z,11.20
2018-12-02T11:14:22.618Z,11.20
2018-12-02T11:16:59.632Z,11.30
2018-12-02T11:19:30.915Z,11.30
2018-12-02T11:22:02.286Z,11.30
2018-12-02T11:24:34.239Z,11.30
2018-12-02T11:27:05.433Z,11.40
2018-12-02T11:29:36.598Z,11.40
2018-12-02T11:34:46.030Z,11.60
2018-12-02T11:37:17.299Z,11.60
2018-12-02T11:39:50.947Z,11.60
2018-12-02T11:42:22.381Z,11.70
2018-12-02T11:44:54.432Z,11.80
2018-12-02T11:47:25.652Z,11.80
2018-12-02T11:49:57.712Z,11.80
2018-12-02T11:52:29.119Z,11.90
2018-12-02T11:55:02.107Z,11.90
2018-12-02T11:57:33.470Z,12.00
2018-12-02T12:00:05.453Z,12.00
2018-12-02T12:02:36.724Z,12.10
2018-12-02T12:05:08.471Z,12.10
2018-12-02T12:07:51.326Z,12.10
2018-12-02T12:10:29.319Z,12.20
2018-12-02T12:13:11.793Z,12.20
2018-12-02T12:15:43.842Z,12.30
2018-12-02T12:18:15.261Z,12.30
2018-12-02T12:20:46.690Z,12.40
2018-12-02T12:23:24.008Z,12.50
2018-12-02T12:31:34.107Z,12.70
2018-12-02T12:34:05.556Z,12.70
2018-12-02T12:36:39.040Z,12.70
2018-12-02T12:39:10.758Z,12.70
2018-12-02T12:41:43.075Z,12.70
2018-12-02T12:44:14.311Z,12.80
2018-12-02T12:46:45.546Z,12.80
2018-12-02T12:49:16.780Z,12.90
2018-12-02T12:51:48.036Z,12.90
2018-12-02T12:54:19.362Z,12.90
2018-12-02T12:56:50.720Z,12.90
2018-12-02T12:59:22.090Z,12.90
2018-12-02T13:01:53.522Z,12.90
2018-12-02T13:04:24.786Z,13.00
2018-12-02T13:06:56.005Z,13.00
2018-12-02T13:09:27.306Z,13.00
2018-12-02T13:11:58.479Z,13.00
2018-12-02T13:14:29.755Z,13.10
2018-12-02T13:17:00.914Z,13.10
2018-12-02T13:19:32.165Z,13.10
2018-12-02T13:22:03.317Z,13.10
2018-12-02T13:24:34.656Z,13.10
2018-12-02T13:27:05.966Z,13.10
2018-12-02T13:29:37.103Z,13.10
2018-12-02T13:32:08.989Z,13.10
2018-12-02T13:34:41.144Z,13.10
2018-12-02T13:37:12.427Z,13.20
2018-12-02T13:39:43.697Z,13.20
2018-12-02T13:42:14.994Z,13.20
2018-12-02T13:44:46.099Z,13.20
2018-12-02T13:47:17.370Z,13.10
2018-12-02T13:49:48.577Z,13.20
2018-12-02T13:52:19.828Z,13.10
2018-12-02T13:54:51.102Z,13.20
2018-12-02T13:57:22.391Z,13.20
2018-12-02T13:59:53.528Z,13.20
2018-12-02T14:02:24.823Z,13.20
2018-12-02T14:04:55.979Z,13.20
2018-12-02T14:07:27.431Z,13.20
2018-12-02T14:09:59.392Z,13.20
2018-12-02T14:12:30.704Z,13.20
2018-12-02T14:15:02.723Z,13.20
2018-12-02T14:17:34.443Z,13.20
2018-12-02T14:20:06.066Z,13.20
2018-12-02T14:22:37.312Z,13.20
2018-12-02T14:25:14.866Z,13.20
2018-12-02T14:27:47.792Z,13.20
2018-12-02T14:30:20.566Z,13.20
2018-12-02T14:32:51.899Z,13.20
2018-12-02T14:35:23.280Z,13.20
2018-12-02T14:37:54.458Z,13.20
2018-12-02T14:40:25.704Z,13.20
2018-12-02T14:42:56.996Z,13.30
2018-12-02T14:45:28.244Z,13.20
2018-12-02T14:47:59.452Z,13.30
2018-12-02T14:50:30.630Z,13.20
2018-12-02T14:53:02.086Z,13.20
2018-12-02T14:55:33.288Z,13.20
2018-12-02T14:58:04.570Z,13.20
2018-12-02T15:00:35.806Z,13.20
2018-12-02T15:03:07.320Z,13.10
2018-12-02T15:05:38.513Z,13.10
2018-12-02T15:08:09.691Z,13.10
2018-12-02T15:10:40.976Z,13.10
2018-12-02T15:13:12.309Z,13.00
2018-12-02T15:15:43.582Z,13.00
2018-12-02T15:18:14.881Z,12.90
2018-12-02T15:20:46.172Z,12.90
2018-12-02T15:23:18.180Z,12.80
2018-12-02T15:25:49.548Z,12.80
2018-12-02T15:28:20.837Z,12.80
2018-12-02T15:30:52.211Z,12.80
2018-12-02T15:33:24.015Z,12.70
2018-12-02T15:35:55.200Z,12.70
2018-12-02T15:38:27.277Z,12.70
2018-12-02T15:40:58.510Z,12.70
2018-12-02T15:43:29.846Z,12.70
2018-12-02T15:46:06.170Z,12.60
2018-12-02T15:48:39.692Z,12.70
2018-12-02T15:51:11.106Z,12.70
2018-12-02T15:53:43.128Z,12.70
2018-12-02T15:56:14.391Z,12.70
2018-12-02T15:58:45.905Z,12.70
2018-12-02T16:01:17.160Z,12.70
2018-12-02T16:03:48.385Z,12.70
2018-12-02T16:06:19.560Z,12.80
2018-12-02T16:08:50.854Z,12.80
2018-12-02T16:11:22.964Z,12.80
2018-12-02T16:13:54.384Z,12.90
2018-12-02T16:16:25.644Z,12.90
2018-12-02T16:18:57.744Z,13.00
2018-12-02T16:21:29.148Z,13.00
2018-12-02T16:24:00.602Z,13.00
2018-12-02T16:26:32.192Z,12.90
2018-12-02T16:29:03.703Z,12.90
2018-12-02T16:31:34.968Z,12.90
2018-12-02T16:34:06.553Z,12.90
2018-12-02T16:36:37.810Z,12.90
2018-12-02T16:39:11.292Z,12.90
2018-12-02T16:41:42.647Z,12.90
2018-12-02T16:44:13.903Z,12.90
2018-12-02T16:46:45.284Z,12.80
2018-12-02T16:49:16.629Z,12.90
2018-12-02T16:51:47.935Z,12.90
2018-12-02T16:54:19.298Z,12.90
2018-12-02T16:56:50.794Z,12.90
2018-12-02T16:59:27.775Z,12.90
2018-12-02T17:02:05.241Z,12.90
2018-12-02T17:04:36.403Z,12.90
2018-12-02T17:07:08.525Z,12.90
2018-12-02T17:09:40.026Z,12.90
2018-12-02T17:12:12.182Z,12.90
2018-12-02T17:14:43.591Z,12.90
2018-12-02T17:17:15.027Z,13.00
2018-12-02T17:19:47.297Z,13.00
2018-12-02T17:22:18.809Z,13.00
2018-12-02T17:24:50.247Z,13.00
2018-12-02T17:27:22.364Z,13.00
2018-12-02T17:29:53.664Z,13.00
2018-12-02T17:32:25.036Z,13.00
2018-12-02T17:34:56.433Z,12.90
2018-12-02T17:37:27.907Z,13.00
2018-12-02T17:39:59.124Z,12.90
2018-12-02T17:42:30.521Z,13.00
2018-12-02T17:45:03.990Z,13.00
2018-12-02T17:47:35.353Z,13.00
2018-12-02T17:50:11.527Z,13.00
2018-12-02T17:52:43.731Z,13.00
2018-12-02T17:55:15.085Z,13.00
2018-12-02T17:57:46.434Z,13.00
2018-12-02T18:00:29.109Z,13.00
2018-12-02T18:03:04.164Z,13.00
2018-12-02T18:05:43.948Z,13.00
2018-12-02T18:08:15.404Z,13.00
2018-12-02T18:10:46.680Z,13.00
2018-12-02T18:13:17.934Z,13.00
2018-12-02T18:15:49.322Z,13.00
2018-12-02T18:18:21.547Z,13.00
2018-12-02T18:20:52.829Z,13.00
2018-12-02T18:23:24.187Z,13.00
2018-12-02T18:26:00.470Z,13.10
2018-12-02T18:28:31.805Z,13.00
2018-12-02T18:31:03.127Z,13.00
2018-12-02T18:33:34.491Z,13.00
2018-12-02T18:36:13.824Z,13.00
2018-12-02T18:38:46.544Z,12.90
2018-12-02T18:41:34.901Z,13.00
2018-12-02T18:44:07.595Z,12.90
2018-12-02T18:46:38.856Z,12.90
2018-12-02T18:51:53.979Z,12.90
2018-12-02T18:54:26.278Z,13.00
2018-12-02T18:56:57.800Z,12.90
2018-12-02T18:59:29.987Z,12.90
2018-12-02T19:02:01.496Z,12.90
2018-12-02T19:04:32.887Z,12.90
2018-12-02T19:07:04.342Z,12.90
2018-12-02T19:09:35.756Z,12.90
2018-12-02T19:12:07.463Z,12.90
2018-12-02T19:14:42.609Z,13.00
2018-12-02T19:17:13.905Z,13.00
2018-12-02T19:19:45.316Z,13.00
2018-12-02T19:22:17.806Z,13.00
2018-12-02T19:24:49.204Z,13.00
2018-12-02T19:27:20.538Z,13.00
2018-12-02T19:29:54.969Z,13.00
2018-12-02T19:32:26.312Z,13.00
2018-12-02T19:34:58.512Z,13.00
2018-12-02T19:37:30.583Z,13.00
2018-12-02T19:40:02.005Z,13.00
2018-12-02T19:42:33.508Z,12.90
2018-12-02T19:45:05.108Z,12.90
2018-12-02T19:47:36.650Z,12.90
2018-12-02T19:50:10.067Z,12.90
2018-12-02T19:52:45.169Z,12.90
2018-12-02T19:55:16.560Z,12.90
2018-12-02T19:57:49.343Z,12.90
2018-12-02T20:00:41.908Z,13.00
2018-12-02T20:03:14.094Z,12.90
2018-12-02T20:05:46.396Z,12.90
2018-12-02T20:08:18.262Z,12.90
2018-12-02T20:10:54.548Z,12.90
2018-12-02T20:13:26.087Z,12.90
2018-12-02T20:16:14.569Z,12.90
2018-12-02T20:18:46.012Z,12.90
2018-12-02T20:21:18.357Z,13.00
2018-12-02T20:24:07.498Z,12.90
2018-12-02T20:26:39.671Z,12.90
2018-12-02T20:29:11.313Z,12.90
2018-12-02T20:31:42.773Z,12.90
2018-12-02T20:34:14.854Z,12.90
2018-12-02T20:36:48.868Z,12.90
2018-12-02T20:39:20.333Z,12.90
2018-12-02T20:41:51.638Z,12.90
2018-12-02T20:44:23.295Z,12.90
2018-12-02T20:46:54.551Z,12.90
2018-12-02T20:49:25.873Z,12.90
2018-12-02T20:51:57.331Z,12.90
2018-12-02T20:54:29.532Z,12.80
2018-12-02T20:57:00.938Z,12.80
2018-12-02T20:59:32.338Z,12.80
2018-12-02T21:02:03.844Z,12.70
2018-12-02T21:04:35.170Z,12.70
2018-12-02T21:07:06.591Z,12.70
2018-12-02T21:09:37.849Z,12.70
2018-12-02T21:12:09.164Z,12.70
2018-12-02T21:14:40.635Z,12.70
2018-12-02T21:17:12.160Z,12.70
2018-12-02T21:19:43.616Z,12.70
2018-12-02T21:22:15.015Z,12.70
2018-12-02T21:24:46.420Z,12.70
2018-12-02T21:27:17.781Z,12.70
2018-12-02T21:29:49.166Z,12.70
2018-12-02T21:32:22.568Z,12.60
2018-12-02T21:34:53.193Z,12.60
2018-12-02T21:37:24.666Z,12.60
2018-12-02T21:39:56.102Z,12.50
2018-12-02T21:42:27.356Z,12.60
2018-12-02T21:44:58.785Z,12.60
2018-12-02T21:47:30.099Z,12.60
2018-12-02T21:50:03.318Z,12.60
2018-12-02T21:52:34.618Z,12.50
2018-12-02T21:55:06.102Z,12.50
2018-12-02T21:57:38.791Z,12.60
2018-12-02T22:00:38.545Z,12.60
2018-12-02T22:03:10.564Z,12.60
2018-12-02T22:05:48.030Z,12.70
2018-12-02T22:08:19.383Z,12.60
2018-12-02T22:10:50.900Z,12.60
2018-12-02T22:13:22.668Z,12.60
2018-12-02T22:15:54.127Z,12.70
2018-12-02T22:18:26.417Z,12.60
2018-12-02T22:20:57.795Z,12.70
2018-12-02T22:23:29.139Z,12.60
2018-12-02T22:26:00.314Z,12.70
2018-12-02T22:28:31.723Z,12.60
2018-12-02T22:31:03.023Z,12.70
2018-12-02T22:33:34.351Z,12.70
2018-12-02T22:36:05.602Z,12.70
2018-12-02T22:38:37.063Z,12.80
2018-12-02T22:41:08.584Z,12.70
2018-12-02T22:43:39.746Z,12.70
2018-12-02T22:46:11.302Z,12.70
2018-12-02T22:48:42.616Z,12.60
2018-12-02T22:51:13.775Z,12.60
2018-12-02T22:53:45.062Z,12.60
2018-12-02T22:56:16.319Z,12.50
2018-12-02T22:58:47.555Z,12.50
2018-12-02T23:01:36.965Z,12.50
2018-12-02T23:04:08.162Z,12.50
2018-12-02T23:06:39.442Z,12.50
2018-12-02T23:09:11.219Z,12.50
2018-12-02T23:11:42.392Z,12.50
2018-12-02T23:14:13.539Z,12.50
2018-12-02T23:17:13.757Z,12.50
2018-12-02T23:19:45.070Z,12.60
2018-12-02T23:24:53.318Z,12.60
2018-12-02T23:27:24.634Z,12.60
2018-12-02T23:29:55.816Z,12.60
2018-12-02T23:32:27.073Z,12.60
2018-12-02T23:34:58.972Z,12.70
2018-12-02T23:37:30.124Z,12.70
2018-12-02T23:40:01.335Z,12.70
2018-12-02T23:42:32.550Z,12.80
2018-12-02T23:45:03.741Z,12.80
2018-12-02T23:47:35.075Z,12.80
2018-12-02T23:50:25.471Z,12.80
2018-12-02T23:52:56.771Z,12.80
2018-12-02T23:55:27.931Z,12.80
2018-12-02T23:58:57.974Z,12.80
